Time;durP1;ratioP1;P1;durP2;ratioP2;P2;SDS_P1;SDS_P2;PMS_P1;PMS_P2;Temp;Humidity;BMP_temperature;BMP_pressure;BME280_temperature;BME280_humidity;BME280_pressure;Samples;Min_cycle;Max_cycle;Signal;HPM_P1;HPM_P2
2022/02/12 00:00:16;;;;;;;2.97;0.83;;;22.80;31.70;;;;;;5032609;28;20441;-68
2022/02/12 00:02:42;;;;;;;2.78;1.00;;;22.80;31.60;;;;;;5032896;28;20387;-69
2022/02/12 00:05:08;;;;;;;2.90;0.88;;;22.80;31.80;;;;;;5032714;28;20403;-68
2022/02/12 00:07:35;;;;;;;3.30;1.00;;;22.80;31.80;;;;;;5032733;28;20415;-69
2022/02/12 00:10:02;;;;;;;2.92;0.80;;;22.80;31.80;;;;;;5030796;28;20494;-68
2022/02/12 00:12:27;;;;;;;2.28;0.80;;;22.80;31.80;;;;;;5031632;28;20391;-68
2022/02/12 00:14:55;;;;;;;3.67;0.90;;;22.70;31.60;;;;;;5031180;28;20407;-69
2022/02/12 00:17:21;;;;;;;2.63;1.00;;;22.70;31.50;;;;;;5031381;28;20394;-70
2022/02/12 00:19:48;;;;;;;3.67;1.30;;;22.70;31.50;;;;;;5032385;28;20386;-68
2022/02/12 00:22:13;;;;;;;3.08;1.00;;;22.70;31.60;;;;;;5031006;28;20430;-68
2022/02/12 00:24:39;;;;;;;3.95;1.10;;;22.60;31.20;;;;;;5032487;28;20423;-68
2022/02/12 00:27:05;;;;;;;3.10;1.00;;;22.60;31.10;;;;;;5032349;28;20390;-68
2022/02/12 00:29:30;;;;;;;2.53;1.08;;;22.50;31.20;;;;;;5032398;28;20419;-68
2022/02/12 00:31:56;;;;;;;4.53;1.10;;;22.50;31.20;;;;;;5030510;28;20406;-68
2022/02/12 00:34:22;;;;;;;3.38;1.20;;;22.60;31.70;;;;;;5030944;28;20406;-68
2022/02/12 00:36:47;;;;;;;3.00;1.00;;;22.50;31.50;;;;;;5030944;28;20488;-68
2022/02/12 00:39:13;;;;;;;3.23;1.00;;;22.60;32.20;;;;;;5030611;28;20506;-68
2022/02/12 00:41:39;;;;;;;3.10;1.30;;;22.60;32.40;;;;;;5032009;28;20466;-68
2022/02/12 00:44:05;;;;;;;3.35;1.20;;;22.50;31.50;;;;;;5030307;28;20400;-68
2022/02/12 00:46:31;;;;;;;2.60;0.90;;;22.50;31.40;;;;;;5031056;28;20403;-69
2022/02/12 00:48:57;;;;;;;3.00;1.10;;;22.50;30.70;;;;;;5030552;28;20418;-68
2022/02/12 00:51:23;;;;;;;2.67;1.02;;;22.50;30.80;;;;;;5031951;28;20466;-67
2022/02/12 00:53:48;;;;;;;2.83;0.90;;;22.50;30.80;;;;;;5030746;28;20435;-68
2022/02/12 00:56:14;;;;;;;2.47;1.00;;;22.40;30.80;;;;;;5031409;28;20835;-68
2022/02/12 00:58:40;;;;;;;2.95;0.93;;;22.40;30.80;;;;;;5030585;28;20410;-68
2022/02/12 01:01:05;;;;;;;1.60;0.90;;;22.40;31.30;;;;;;5031286;28;20398;-69
2022/02/12 01:03:31;;;;;;;2.40;0.82;;;22.50;31.50;;;;;;5030329;28;20403;-68
2022/02/12 01:05:57;;;;;;;1.70;0.80;;;22.50;31.10;;;;;;5029969;28;20391;-68
2022/02/12 01:08:23;;;;;;;1.80;0.80;;;22.40;30.80;;;;;;5031616;28;20405;-68
2022/02/12 01:10:49;;;;;;;2.22;0.80;;;22.50;30.90;;;;;;5030497;28;20406;-68
2022/02/12 01:13:15;;;;;;;2.03;0.75;;;22.50;30.70;;;;;;5030126;28;20387;-68
2022/02/12 01:15:41;;;;;;;2.07;1.00;;;22.50;30.90;;;;;;5031600;28;20434;-68
2022/02/12 01:18:06;;;;;;;1.90;0.80;;;22.50;31.00;;;;;;5029674;28;20435;-68
2022/02/12 01:20:34;;;;;;;2.70;1.00;;;22.50;31.00;;;;;;5031640;28;20387;-68
2022/02/12 01:23:00;;;;;;;2.00;0.80;;;22.50;31.10;;;;;;5031505;28;20929;-68
2022/02/12 01:25:26;;;;;;;2.20;0.80;;;22.50;31.00;;;;;;5031574;28;20426;-68
2022/02/12 01:27:53;;;;;;;1.45;0.80;;;22.40;31.00;;;;;;5031145;28;20415;-68
2022/02/12 01:30:19;;;;;;;1.80;0.88;;;22.40;31.10;;;;;;5031146;28;20863;-68
2022/02/12 01:32:45;;;;;;;1.73;0.73;;;22.40;31.10;;;;;;5031596;28;20399;-69
2022/02/12 01:35:12;;;;;;;1.53;0.80;;;22.40;31.30;;;;;;5031416;28;20493;-71
2022/02/12 01:37:39;;;;;;;1.80;0.80;;;22.30;31.10;;;;;;5029966;28;20430;-69
2022/02/12 01:40:06;;;;;;;1.92;0.82;;;22.30;31.10;;;;;;5029578;28;20920;-68
2022/02/12 01:42:32;;;;;;;1.75;0.70;;;22.40;31.40;;;;;;5031512;28;20387;-70
2022/02/12 01:45:01;;;;;;;1.38;0.70;;;22.30;31.20;;;;;;5031349;28;20898;-68
2022/02/12 01:47:27;;;;;;;2.20;0.70;;;22.40;31.10;;;;;;5031426;28;20421;-69
2022/02/12 01:49:54;;;;;;;1.90;0.70;;;22.40;31.00;;;;;;5031013;28;20476;-68
2022/02/12 01:52:21;;;;;;;1.80;0.63;;;22.30;31.00;;;;;;5031080;28;20470;-68
2022/02/12 01:54:48;;;;;;;1.40;0.70;;;22.30;31.00;;;;;;5031275;28;20405;-68
2022/02/12 01:57:13;;;;;;;1.40;0.70;;;22.30;30.90;;;;;;5031208;28;21094;-68
2022/02/12 01:59:42;;;;;;;2.20;0.80;;;22.30;30.90;;;;;;5031349;28;20483;-68
2022/02/12 02:02:09;;;;;;;1.27;0.60;;;22.40;31.00;;;;;;5030615;28;20441;-68
2022/02/12 02:04:35;;;;;;;1.38;0.70;;;22.40;31.10;;;;;;5031101;28;20391;-68
2022/02/12 02:07:01;;;;;;;1.50;0.70;;;22.30;31.00;;;;;;5031796;28;20398;-68
2022/02/12 02:09:30;;;;;;;1.98;0.65;;;22.30;31.00;;;;;;5035043;28;20419;-68
2022/02/12 02:11:56;;;;;;;1.58;0.60;;;22.40;31.00;;;;;;5034790;28;20383;-68
2022/02/12 02:14:33;;;;;;;2.45;0.77;;;22.30;30.90;;;;;;5034802;28;20721;-68
2022/02/12 02:16:59;;;;;;;1.75;0.60;;;22.30;30.90;;;;;;5034767;28;20391;-68
2022/02/12 02:19:25;;;;;;;1.58;0.77;;;22.30;30.90;;;;;;5034693;28;20383;-68
2022/02/12 02:21:54;;;;;;;2.30;1.00;;;22.30;30.90;;;;;;5033508;28;20403;-68
2022/02/12 02:24:20;;;;;;;1.33;0.70;;;22.30;30.90;;;;;;5034588;28;20383;-68
2022/02/12 02:26:46;;;;;;;1.42;0.60;;;22.30;30.90;;;;;;5034743;28;20478;-68
2022/02/12 02:29:12;;;;;;;1.92;0.80;;;22.30;30.90;;;;;;5034486;28;20561;-68
2022/02/12 02:31:37;;;;;;;1.17;0.50;;;22.30;30.80;;;;;;5033397;28;20399;-70
2022/02/12 02:34:07;;;;;;;1.80;0.80;;;22.30;30.80;;;;;;5033977;28;20786;-68
2022/02/12 02:36:33;;;;;;;1.05;0.60;;;22.20;30.80;;;;;;5034479;28;20491;-68
2022/02/12 02:38:59;;;;;;;1.45;0.80;;;22.30;31.00;;;;;;5034306;28;20510;-68
2022/02/12 02:41:25;;;;;;;1.33;0.67;;;22.20;31.50;;;;;;5033298;28;20803;-68
2022/02/12 02:43:51;;;;;;;0.98;0.52;;;22.20;31.00;;;;;;5033085;28;20391;-68
2022/02/12 02:46:17;;;;;;;1.80;0.80;;;22.20;30.90;;;;;;5032549;28;20398;-68
2022/02/12 02:48:42;;;;;;;2.83;0.80;;;22.20;31.00;;;;;;5032929;28;20423;-68
2022/02/12 02:56:36;;;;;;;1.23;0.70;;;22.30;30.80;;;;;;5034215;28;20766;-68
2022/02/12 02:59:02;;;;;;;1.52;0.60;;;22.20;30.70;;;;;;5034084;28;20875;-68
2022/02/12 03:01:27;;;;;;;1.70;0.50;;;22.20;30.60;;;;;;5032833;28;20397;-68
2022/02/12 03:03:54;;;;;;;1.10;0.60;;;22.30;30.60;;;;;;5034027;28;20930;-68
2022/02/12 03:06:22;;;;;;;1.60;0.60;;;22.20;30.60;;;;;;5033021;28;20509;-68
2022/02/12 03:08:48;;;;;;;1.43;0.60;;;22.20;30.70;;;;;;5032490;28;20458;-68
2022/02/12 03:11:15;;;;;;;1.55;0.73;;;22.20;30.70;;;;;;5032650;28;20383;-68
2022/02/12 03:13:42;;;;;;;1.25;0.60;;;22.10;30.70;;;;;;5032644;28;20392;-68
2022/02/12 03:16:08;;;;;;;1.05;0.57;;;22.10;30.80;;;;;;5033389;28;20414;-68
2022/02/12 03:18:35;;;;;;;1.27;0.50;;;22.10;30.90;;;;;;5031391;28;20909;-68
2022/02/12 03:21:01;;;;;;;2.75;0.63;;;22.10;30.90;;;;;;5033701;28;20390;-68
2022/02/12 03:23:26;;;;;;;1.20;0.70;;;22.10;31.00;;;;;;5032484;28;20759;-68
2022/02/12 03:25:52;;;;;;;1.80;0.63;;;22.10;31.00;;;;;;5033582;28;20429;-68
2022/02/12 03:28:18;;;;;;;0.97;0.40;;;22.10;31.00;;;;;;5032746;28;20418;-68
2022/02/12 03:30:48;;;;;;;1.05;0.50;;;22.00;31.00;;;;;;5033002;28;20936;-68
2022/02/12 03:33:15;;;;;;;1.30;0.50;;;22.00;31.00;;;;;;5033406;28;20413;-68
2022/02/12 03:35:41;;;;;;;0.93;0.52;;;22.00;31.70;;;;;;5033462;28;20391;-68
2022/02/12 03:38:08;;;;;;;1.42;0.70;;;22.00;31.00;;;;;;5032683;28;20415;-69
2022/02/12 03:40:35;;;;;;;0.90;0.40;;;22.00;31.10;;;;;;5033467;28;20387;-68
2022/02/12 03:43:01;;;;;;;1.43;0.60;;;22.00;31.10;;;;;;5033127;28;20902;-68
2022/02/12 03:45:27;;;;;;;0.93;0.50;;;21.90;31.00;;;;;;5033279;28;20406;-68
2022/02/12 03:47:52;;;;;;;1.00;0.40;;;21.90;31.00;;;;;;5033136;28;20391;-68
2022/02/12 03:50:18;;;;;;;1.10;0.50;;;21.90;30.90;;;;;;5032611;28;20451;-67
2022/02/12 03:52:44;;;;;;;1.00;0.50;;;21.90;31.00;;;;;;5032926;28;20390;-68
2022/02/12 03:55:10;;;;;;;1.25;0.47;;;22.00;30.90;;;;;;5032908;28;20395;-69
2022/02/12 03:57:36;;;;;;;1.00;0.50;;;21.90;30.80;;;;;;5033085;28;20387;-68
2022/02/12 04:00:09;;;;;;;1.13;0.50;;;22.00;30.80;;;;;;5032711;28;20868;-68
2022/02/12 04:02:35;;;;;;;1.20;0.45;;;22.00;30.80;;;;;;5031716;28;20399;-68
2022/02/12 04:05:00;;;;;;;0.90;0.50;;;22.00;30.70;;;;;;5031538;28;20937;-68
2022/02/12 04:07:26;;;;;;;0.90;0.40;;;22.00;30.80;;;;;;5032594;28;20383;-68
2022/02/12 04:09:52;;;;;;;1.00;0.50;;;22.00;30.80;;;;;;5031173;28;20903;-68
2022/02/12 04:12:17;;;;;;;1.13;0.50;;;21.90;30.80;;;;;;5031059;28;20525;-68
2022/02/12 04:14:43;;;;;;;1.13;0.40;;;21.90;30.80;;;;;;5031433;28;20392;-68
2022/02/12 04:17:09;;;;;;;1.20;0.57;;;21.90;30.90;;;;;;5031437;28;20391;-68
2022/02/12 04:19:34;;;;;;;0.73;0.40;;;21.90;30.90;;;;;;5032561;28;20399;-68
2022/02/12 04:22:00;;;;;;;2.42;0.50;;;21.90;30.80;;;;;;5031096;28;20391;-68
2022/02/12 04:24:26;;;;;;;1.07;0.63;;;21.90;30.90;;;;;;5032296;28;20419;-68
2022/02/12 04:26:51;;;;;;;1.50;0.57;;;21.90;30.90;;;;;;5032442;28;20453;-68
2022/02/12 04:29:17;;;;;;;1.03;0.50;;;21.90;30.90;;;;;;5031095;28;20485;-68
2022/02/12 04:31:43;;;;;;;0.80;0.50;;;21.90;30.90;;;;;;5030666;28;20402;-68
2022/02/12 04:34:08;;;;;;;0.90;0.50;;;21.90;30.90;;;;;;5030361;28;20891;-69
2022/02/12 04:36:34;;;;;;;0.70;0.40;;;21.90;30.90;;;;;;5030629;28;21028;-68
2022/02/12 04:39:00;;;;;;;0.77;0.32;;;21.80;30.90;;;;;;5031789;28;20414;-68
2022/02/12 04:41:26;;;;;;;1.10;0.50;;;21.80;30.80;;;;;;5030955;28;20388;-69
2022/02/12 04:43:52;;;;;;;1.10;0.47;;;21.80;30.80;;;;;;5030893;28;20406;-68
2022/02/12 04:46:18;;;;;;;1.15;0.47;;;21.80;30.70;;;;;;5030211;28;20872;-68
2022/02/12 04:48:48;;;;;;;1.02;0.50;;;21.80;30.70;;;;;;5032074;28;20509;-68
2022/02/12 04:51:18;;;;;;;1.20;0.50;;;21.80;30.80;;;;;;5032004;28;20600;-68
2022/02/12 04:53:44;;;;;;;0.70;0.40;;;21.80;30.80;;;;;;5031939;28;20388;-68
2022/02/12 04:56:10;;;;;;;0.77;0.40;;;21.80;30.80;;;;;;5031401;28;20445;-68
2022/02/12 04:58:35;;;;;;;0.82;0.40;;;21.80;30.70;;;;;;5032029;28;20395;-68
2022/02/12 05:01:01;;;;;;;0.90;0.50;;;21.80;30.70;;;;;;5031864;28;20721;-68
2022/02/12 05:03:26;;;;;;;1.80;0.70;;;21.80;30.70;;;;;;5031874;28;20852;-68
2022/02/12 05:05:52;;;;;;;1.30;0.60;;;21.80;30.70;;;;;;5031828;28;20399;-68
2022/02/12 05:08:18;;;;;;;1.00;0.60;;;21.90;30.60;;;;;;5031123;28;20410;-69
2022/02/12 05:10:44;;;;;;;1.77;0.60;;;21.80;30.60;;;;;;5031742;28;20395;-68
2022/02/12 05:13:09;;;;;;;1.25;0.50;;;21.80;30.60;;;;;;5031766;28;20475;-68
2022/02/12 05:15:35;;;;;;;1.47;0.60;;;21.80;30.50;;;;;;5031602;28;20425;-68
2022/02/12 05:18:01;;;;;;;1.13;0.50;;;21.80;30.40;;;;;;5031602;28;20778;-70
2022/02/12 05:20:27;;;;;;;2.00;0.60;;;21.80;30.70;;;;;;5031148;28;20391;-68
2022/02/12 05:22:52;;;;;;;2.88;0.68;;;21.90;31.40;;;;;;5031644;28;20870;-69
2022/02/12 05:25:18;;;;;;;1.55;0.55;;;22.00;30.80;;;;;;5031133;28;20387;-69
2022/02/12 05:27:44;;;;;;;2.57;0.80;;;22.10;32.00;;;;;;5030928;28;20394;-69
2022/02/12 05:30:10;;;;;;;1.33;0.60;;;22.10;33.00;;;;;;5030370;28;20410;-68
2022/02/12 05:32:36;;;;;;;2.28;0.60;;;22.20;33.20;;;;;;5031185;28;20395;-69
2022/02/12 05:35:02;;;;;;;2.30;0.70;;;22.10;33.50;;;;;;5031379;28;20387;-69
2022/02/12 05:37:28;;;;;;;1.80;0.80;;;22.20;33.60;;;;;;5029362;28;20453;-69
2022/02/12 05:39:53;;;;;;;2.00;0.63;;;22.20;33.20;;;;;;5028912;28;20403;-68
2022/02/12 05:42:19;;;;;;;1.80;0.60;;;22.20;33.20;;;;;;5031931;28;20414;-68
2022/02/12 05:44:45;;;;;;;1.83;0.60;;;22.10;33.20;;;;;;5033936;28;20410;-69
2022/02/12 05:47:11;;;;;;;1.70;0.60;;;22.20;32.80;;;;;;5035076;28;20399;-68
2022/02/12 05:49:36;;;;;;;2.00;0.70;;;22.10;32.30;;;;;;5034145;28;20426;-71
2022/02/12 05:52:02;;;;;;;4.10;0.93;;;22.10;32.70;;;;;;5034847;28;20395;-75
2022/02/12 05:54:28;;;;;;;2.55;0.60;;;22.10;32.50;;;;;;5034927;28;20449;-75
2022/02/12 05:56:54;;;;;;;4.10;0.60;;;22.10;32.30;;;;;;5034073;28;20383;-74
2022/02/12 05:59:19;;;;;;;2.13;0.60;;;22.10;32.00;;;;;;5034044;28;20407;-72
2022/02/12 06:01:45;;;;;;;2.85;0.57;;;22.10;32.00;;;;;;5035176;28;20389;-68
2022/02/12 06:04:11;;;;;;;3.20;0.60;;;22.10;32.00;;;;;;5033333;28;20573;-68
2022/02/12 06:06:36;;;;;;;1.38;0.50;;;22.00;31.90;;;;;;5034519;28;20556;-68
2022/02/12 06:09:02;;;;;;;2.43;0.77;;;22.00;31.60;;;;;;5033527;28;20419;-68
2022/02/12 06:11:28;;;;;;;1.60;0.60;;;22.00;31.50;;;;;;5033405;28;20391;-68
2022/02/12 06:13:54;;;;;;;1.37;0.50;;;22.00;31.40;;;;;;5033644;28;21126;-68
2022/02/12 06:16:20;;;;;;;1.70;0.60;;;22.00;31.30;;;;;;5033246;28;20384;-68
2022/02/12 06:18:46;;;;;;;1.03;0.40;;;22.00;31.30;;;;;;5034727;28;20402;-68
2022/02/12 06:21:12;;;;;;;2.20;0.80;;;22.00;31.30;;;;;;5033365;28;20421;-69
2022/02/12 06:23:38;;;;;;;1.60;0.60;;;22.00;31.40;;;;;;5034734;28;20917;-70
2022/02/12 06:26:05;;;;;;;0.93;0.43;;;21.90;31.30;;;;;;5034506;28;20395;-68
2022/02/12 06:28:31;;;;;;;1.63;0.52;;;22.00;31.40;;;;;;5034311;28;20414;-68
2022/02/12 06:30:56;;;;;;;2.03;0.77;;;21.90;31.40;;;;;;5034640;28;20445;-68
2022/02/12 06:33:22;;;;;;;1.15;0.45;;;21.90;31.30;;;;;;5034558;28;20471;-68
2022/02/12 06:35:48;;;;;;;1.27;0.52;;;21.90;31.20;;;;;;5034382;28;20398;-69
2022/02/12 06:38:13;;;;;;;1.85;0.75;;;21.90;31.10;;;;;;5033974;28;20407;-67
2022/02/12 06:40:39;;;;;;;1.70;0.70;;;21.90;31.10;;;;;;5034244;28;20486;-69
2022/02/12 06:43:05;;;;;;;1.58;0.60;;;21.80;31.00;;;;;;5034149;28;20732;-68
2022/02/12 06:45:33;;;;;;;1.53;0.50;;;21.80;31.10;;;;;;5034370;28;20399;-69
2022/02/12 06:47:59;;;;;;;1.48;0.80;;;21.80;31.10;;;;;;5033064;28;20391;-69
2022/02/12 06:50:24;;;;;;;1.52;0.50;;;21.80;31.20;;;;;;5033917;28;20939;-69
2022/02/12 06:52:50;;;;;;;2.50;0.50;;;21.80;31.20;;;;;;5033603;28;20876;-68
2022/02/12 06:55:16;;;;;;;1.60;0.40;;;21.70;31.10;;;;;;5034135;28;20387;-68
2022/02/12 06:57:41;;;;;;;1.67;0.50;;;21.80;30.90;;;;;;5032988;28;20410;-68
2022/02/12 07:00:08;;;;;;;1.50;0.70;;;21.80;31.20;;;;;;5034173;28;20395;-69
2022/02/12 07:02:33;;;;;;;2.00;0.70;;;21.90;31.30;;;;;;5033764;28;20747;-68
2022/02/12 07:05:00;;;;;;;2.20;0.67;;;22.00;32.60;;;;;;5034063;28;20402;-71
2022/02/12 07:07:26;;;;;;;2.40;0.60;;;21.90;30.60;;;;;;5032710;28;20399;-68
2022/02/12 07:09:51;;;;;;;4.00;0.80;;;21.80;31.10;;;;;;5033766;28;20411;-75
2022/02/12 07:12:17;;;;;;;1.27;0.60;;;21.70;31.40;;;;;;5033179;28;20388;-68
2022/02/12 07:14:43;;;;;;;2.57;1.00;;;21.60;30.70;;;;;;5033910;28;20416;-67
2022/02/12 07:17:08;;;;;;;2.00;0.95;;;21.50;31.00;;;;;;5033762;28;20391;-69
2022/02/12 07:19:37;;;;;;;3.40;0.80;;;21.50;31.30;;;;;;5033789;28;20402;-69
2022/02/12 07:22:03;;;;;;;2.85;0.80;;;21.40;31.40;;;;;;5033581;28;20383;-68
2022/02/12 07:24:29;;;;;;;3.72;0.98;;;21.40;31.50;;;;;;5033203;28;20473;-67
2022/02/12 07:26:55;;;;;;;2.83;0.60;;;21.40;31.30;;;;;;5032218;28;20443;-69
2022/02/12 07:29:21;;;;;;;2.87;0.80;;;21.40;31.30;;;;;;5032378;28;20415;-68
2022/02/12 07:31:46;;;;;;;2.50;0.63;;;21.40;31.40;;;;;;5033229;28;20387;-68
2022/02/12 07:34:15;;;;;;;5.00;1.30;;;21.40;31.50;;;;;;5033428;28;20414;-67
2022/02/12 07:36:41;;;;;;;6.70;0.90;;;21.40;31.30;;;;;;5033256;28;20883;-68
2022/02/12 07:39:07;;;;;;;2.85;0.60;;;21.30;31.80;;;;;;5031905;28;20930;-68
2022/02/12 07:41:35;;;;;;;6.97;0.95;;;21.30;31.90;;;;;;5033134;28;20395;-67
2022/02/12 07:44:03;;;;;;;3.00;0.73;;;21.40;31.40;;;;;;5030535;28;20418;-68
2022/02/12 07:46:28;;;;;;;2.78;0.60;;;21.40;31.10;;;;;;5026545;28;20395;-68
2022/02/12 07:48:54;;;;;;;2.90;0.50;;;21.50;31.00;;;;;;5032018;28;20472;-68
2022/02/12 07:51:20;;;;;;;2.72;0.65;;;21.50;30.90;;;;;;5030655;28;20403;-68
2022/02/12 07:53:46;;;;;;;1.93;0.50;;;21.50;30.80;;;;;;5032331;28;20380;-68
2022/02/12 07:56:12;;;;;;;4.43;0.70;;;21.60;30.90;;;;;;5032924;28;20489;-68
2022/02/12 07:58:38;;;;;;;1.40;0.60;;;21.60;30.80;;;;;;5032945;28;20470;-68
2022/02/12 08:01:04;;;;;;;3.58;0.60;;;21.60;30.90;;;;;;5032940;28;20399;-68
2022/02/12 08:03:30;;;;;;;2.10;0.65;;;21.60;30.90;;;;;;5032971;28;20391;-68
2022/02/12 08:05:57;;;;;;;3.03;0.68;;;21.60;30.90;;;;;;5032038;28;20388;-68
2022/02/12 08:08:23;;;;;;;2.40;0.57;;;21.60;30.80;;;;;;5032266;28;20407;-68
2022/02/12 08:13:33;;;;;;;2.20;0.80;;;21.70;30.80;;;;;;5028875;28;20386;-69
2022/02/12 08:15:59;;;;;;;2.60;0.70;;;21.60;31.20;;;;;;5032021;28;20407;-69
2022/02/12 08:18:25;;;;;;;1.50;0.70;;;21.60;31.80;;;;;;5030526;28;20392;-68
2022/02/12 08:20:51;;;;;;;1.67;0.80;;;21.70;32.30;;;;;;5031130;28;20395;-68
2022/02/12 08:23:17;;;;;;;5.18;0.70;;;21.70;31.50;;;;;;5032524;28;20897;-68
2022/02/12 08:25:45;;;;;;;2.60;1.00;;;21.80;31.40;;;;;;5032411;28;20430;-68
2022/02/12 08:28:11;;;;;;;1.83;0.67;;;21.80;31.40;;;;;;5032136;28;20414;-68
2022/02/12 08:30:36;;;;;;;2.20;0.73;;;21.80;31.20;;;;;;5019010;28;20411;-68
2022/02/12 08:33:02;;;;;;;3.00;0.70;;;21.70;31.40;;;;;;5013503;28;20393;-68
2022/02/12 08:35:27;;;;;;;6.40;1.00;;;21.70;32.00;;;;;;5013060;28;20443;-68
2022/02/12 08:37:53;;;;;;;2.47;0.80;;;21.80;32.30;;;;;;5008389;28;20396;-68
2022/02/12 08:40:19;;;;;;;2.92;0.52;;;21.80;32.20;;;;;;5029649;28;20806;-69
2022/02/12 08:42:48;;;;;;;2.25;0.60;;;21.80;32.00;;;;;;5031972;28;20392;-69
2022/02/12 08:45:14;;;;;;;4.13;0.60;;;21.90;31.60;;;;;;5032196;28;20803;-68
2022/02/12 08:47:39;;;;;;;1.70;0.65;;;21.90;31.40;;;;;;5030862;28;20391;-68
2022/02/12 08:50:08;;;;;;;2.00;0.40;;;21.90;31.30;;;;;;5031877;28;20473;-67
2022/02/12 08:52:34;;;;;;;4.05;0.63;;;21.90;31.40;;;;;;5031636;28;20423;-68
2022/02/12 08:55:00;;;;;;;3.05;0.70;;;22.00;31.20;;;;;;5032022;28;20747;-68
2022/02/12 08:57:26;;;;;;;4.07;0.70;;;21.90;31.10;;;;;;5032063;28;20383;-68
2022/02/12 08:59:52;;;;;;;2.73;0.90;;;22.00;31.20;;;;;;5031996;28;20717;-68
2022/02/12 09:02:18;;;;;;;3.87;0.80;;;22.00;31.00;;;;;;5031655;28;20917;-67
2022/02/12 09:04:44;;;;;;;1.55;0.60;;;22.10;31.00;;;;;;5031665;28;20922;-68
2022/02/12 09:07:10;;;;;;;1.67;0.70;;;22.10;30.80;;;;;;5031690;28;20388;-67
2022/02/12 09:09:36;;;;;;;4.20;1.00;;;22.10;30.70;;;;;;5031775;28;20419;-67
2022/02/12 09:12:02;;;;;;;2.23;0.80;;;22.20;30.70;;;;;;5030474;28;20826;-68
2022/02/12 09:14:28;;;;;;;2.00;0.70;;;22.20;30.50;;;;;;5029949;28;20747;-69
2022/02/12 09:16:53;;;;;;;1.30;0.50;;;22.20;30.40;;;;;;5031272;28;20387;-68
2022/02/12 09:19:20;;;;;;;1.90;0.73;;;22.30;30.30;;;;;;5031636;28;20802;-67
2022/02/12 09:21:46;;;;;;;1.27;0.50;;;22.30;30.30;;;;;;5031540;28;20419;-67
2022/02/12 09:24:11;;;;;;;1.33;0.60;;;22.30;30.30;;;;;;5030272;28;20453;-68
2022/02/12 09:26:38;;;;;;;1.23;0.68;;;22.30;30.20;;;;;;5031162;28;20383;-68
2022/02/12 09:29:07;;;;;;;2.20;0.60;;;22.40;30.20;;;;;;5031434;28;20934;-68
2022/02/12 09:31:33;;;;;;;3.17;0.88;;;22.40;30.20;;;;;;5031451;28;20389;-68
2022/02/12 09:33:59;;;;;;;1.65;0.60;;;22.40;30.20;;;;;;5031327;28;20388;-70
2022/02/12 09:36:25;;;;;;;1.70;0.60;;;22.40;30.30;;;;;;5030990;28;20392;-68
2022/02/12 09:38:50;;;;;;;1.40;0.50;;;22.40;30.20;;;;;;5031249;28;20433;-68
2022/02/12 09:41:22;;;;;;;1.10;0.50;;;22.50;30.30;;;;;;5031450;28;20387;-69
2022/02/12 09:43:49;;;;;;;1.20;0.60;;;22.50;30.20;;;;;;5031239;28;20428;-68
2022/02/12 09:46:34;;;;;;;1.50;0.60;;;22.50;30.20;;;;;;5031232;28;20414;-68
2022/02/12 09:49:01;;;;;;;2.13;0.70;;;22.60;30.20;;;;;;5031198;28;20434;-68
2022/02/12 09:51:28;;;;;;;1.27;0.50;;;22.50;30.10;;;;;;5030210;28;20883;-67
2022/02/12 09:53:54;;;;;;;1.55;0.68;;;22.60;30.20;;;;;;5031133;28;20387;-68
2022/02/12 09:56:20;;;;;;;1.42;0.60;;;22.50;30.00;;;;;;5031105;28;20399;-68
2022/02/12 09:58:47;;;;;;;1.50;0.60;;;22.50;30.10;;;;;;5031095;28;20391;-67
2022/02/12 10:01:12;;;;;;;1.80;0.60;;;22.50;30.10;;;;;;5031266;28;20486;-68
2022/02/12 10:03:38;;;;;;;0.73;0.45;;;22.50;30.10;;;;;;5031285;28;20473;-68
2022/02/12 10:06:04;;;;;;;1.17;0.60;;;22.50;30.10;;;;;;5031295;28;20859;-68
2022/02/12 10:08:30;;;;;;;1.80;0.80;;;22.50;30.10;;;;;;5030776;28;20573;-68
2022/02/12 10:10:56;;;;;;;1.02;0.65;;;22.50;30.10;;;;;;5029881;28;20926;-67
2022/02/12 10:13:32;;;;;;;1.15;0.57;;;22.50;30.20;;;;;;5029789;28;20423;-70
2022/02/12 10:16:00;;;;;;;1.27;0.60;;;22.50;30.20;;;;;;5030852;28;20474;-69
2022/02/12 10:18:32;;;;;;;1.40;0.70;;;22.50;30.30;;;;;;5030907;28;20391;-67
2022/02/12 10:20:58;;;;;;;1.38;0.57;;;22.50;30.20;;;;;;5030837;28;20848;-68
2022/02/12 10:23:29;;;;;;;1.80;0.80;;;22.50;30.10;;;;;;5031048;28;20430;-68
2022/02/12 10:26:03;;;;;;;1.75;0.65;;;22.60;30.10;;;;;;5030658;28;20395;-67
2022/02/12 10:28:38;;;;;;;2.38;0.68;;;22.70;33.40;;;;;;5031612;28;20887;-68
2022/02/12 10:31:04;;;;;;;4.10;0.77;;;23.30;30.70;;;;;;5034668;28;20403;-68
2022/02/12 10:33:38;;;;;;;6.10;1.30;;;23.60;30.30;;;;;;5034653;28;20464;-66
2022/02/12 10:36:05;;;;;;;5.95;1.02;;;23.70;30.00;;;;;;5034493;28;20430;-68
2022/02/12 10:38:33;;;;;;;1.50;0.50;;;23.80;30.00;;;;;;5033677;28;20488;-73
2022/02/12 10:41:10;;;;;;;2.20;0.60;;;24.00;30.10;;;;;;5034128;28;20471;-66
2022/02/12 10:43:37;;;;;;;2.50;1.00;;;24.10;30.70;;;;;;5033069;28;20399;-67
2022/02/12 10:46:03;;;;;;;3.55;0.50;;;24.20;30.20;;;;;;5034248;28;20383;-68
2022/02/12 10:48:32;;;;;;;1.70;0.57;;;24.30;30.60;;;;;;5033642;28;20427;-68
2022/02/12 10:51:19;;;;;;;1.58;0.60;;;24.40;30.70;;;;;;5033953;28;20399;-67
2022/02/12 10:53:58;;;;;;;1.90;0.77;;;24.50;30.50;;;;;;5033799;28;20395;-67
2022/02/12 10:56:26;;;;;;;1.55;0.50;;;24.50;30.50;;;;;;5033415;28;20452;-66
2022/02/12 10:58:53;;;;;;;1.90;0.60;;;24.60;30.10;;;;;;5033313;28;20488;-68
2022/02/12 11:01:20;;;;;;;1.13;0.50;;;24.70;30.40;;;;;;5033826;28;20892;-71
2022/02/12 11:03:46;;;;;;;1.48;0.50;;;24.80;30.20;;;;;;5033655;28;20399;-67
2022/02/12 11:06:14;;;;;;;4.72;0.55;;;24.90;30.00;;;;;;5033452;28;20430;-68
2022/02/12 11:08:40;;;;;;;1.85;0.50;;;25.00;30.10;;;;;;5032838;28;20415;-66
2022/02/12 11:11:06;;;;;;;3.03;0.60;;;25.10;30.00;;;;;;5032760;28;20383;-67
2022/02/12 11:13:33;;;;;;;2.13;0.70;;;25.20;29.80;;;;;;5033649;28;20501;-68
2022/02/12 11:15:59;;;;;;;2.25;0.68;;;25.30;30.30;;;;;;5033350;28;20466;-69
2022/02/12 11:18:26;;;;;;;2.92;0.50;;;25.30;29.90;;;;;;5033266;28;20479;-67
2022/02/12 11:20:54;;;;;;;4.05;0.57;;;25.30;29.60;;;;;;5032215;28;20898;-68
2022/02/12 11:23:20;;;;;;;2.13;0.60;;;25.40;29.80;;;;;;5031082;28;20399;-67
2022/02/12 11:25:52;;;;;;;4.43;0.60;;;25.50;29.60;;;;;;5031988;28;20406;-68
2022/02/12 11:28:18;;;;;;;1.27;0.50;;;25.50;29.50;;;;;;5030784;28;20445;-67
2022/02/12 11:30:45;;;;;;;2.20;0.50;;;25.60;29.40;;;;;;5031975;28;20883;-68
2022/02/12 11:33:22;;;;;;;2.67;0.80;;;25.60;29.10;;;;;;5031190;28;20398;-68
2022/02/12 11:36:14;;;;;;;2.30;0.70;;;25.70;29.20;;;;;;5031249;28;20391;-72
2022/02/12 11:38:43;;;;;;;1.42;0.40;;;25.80;29.20;;;;;;5032509;28;20937;-68
2022/02/12 11:41:26;;;;;;;2.97;0.50;;;25.90;30.00;;;;;;5032250;28;20782;-68
2022/02/12 11:43:53;;;;;;;3.00;0.60;;;26.00;29.20;;;;;;5028687;28;20464;-68
2022/02/12 11:46:42;;;;;;;1.60;0.40;;;26.00;29.00;;;;;;5017387;28;20398;-74
2022/02/12 11:49:31;;;;;;;3.37;0.60;;;26.00;28.80;;;;;;5030568;28;20834;-68
2022/02/12 11:52:00;;;;;;;4.25;0.65;;;26.00;28.80;;;;;;5027093;28;20395;-67
2022/02/12 11:54:46;;;;;;;2.40;0.60;;;26.10;28.70;;;;;;5024907;28;20411;-67
2022/02/12 11:57:38;;;;;;;2.25;0.70;;;26.10;28.80;;;;;;5021131;28;20385;-67
2022/02/12 12:00:04;;;;;;;4.03;0.50;;;26.20;29.00;;;;;;5019517;28;20408;-68
2022/02/12 12:02:48;;;;;;;4.25;0.60;;;26.30;29.20;;;;;;5030998;28;20387;-68
2022/02/12 12:05:25;;;;;;;3.63;0.68;;;26.40;29.40;;;;;;5022655;28;20483;-68
2022/02/12 12:08:06;;;;;;;2.60;0.55;;;26.50;29.40;;;;;;5025464;28;20815;-68
2022/02/12 12:10:36;;;;;;;2.45;0.60;;;26.50;29.40;;;;;;5029283;28;21063;-76
2022/02/12 12:13:15;;;;;;;4.33;0.70;;;26.60;29.40;;;;;;5031893;28;20493;-68
2022/02/12 12:15:51;;;;;;;2.40;0.63;;;26.70;29.90;;;;;;5029641;28;20391;-70
2022/02/12 12:18:17;;;;;;;4.57;0.80;;;26.70;29.80;;;;;;5031416;28;20419;-68
2022/02/12 12:20:45;;;;;;;4.57;0.80;;;26.80;29.90;;;;;;5032233;28;20426;-69
2022/02/12 12:23:14;;;;;;;4.03;0.80;;;26.80;29.80;;;;;;5032191;28;20375;-68
2022/02/12 12:26:02;;;;;;;8.98;0.85;;;26.90;29.50;;;;;;5032576;28;20399;-68
2022/02/12 12:28:41;;;;;;;4.20;1.05;;;26.90;29.50;;;;;;5032123;28;20453;-69
2022/02/12 12:31:14;;;;;;;4.68;0.88;;;26.90;29.30;;;;;;5032331;28;20875;-68
2022/02/12 12:33:44;;;;;;;6.70;1.10;;;27.00;29.70;;;;;;5030874;28;20391;-68
2022/02/12 12:36:12;;;;;;;6.53;0.90;;;27.10;29.20;;;;;;5031081;28;20388;-68
2022/02/12 12:38:39;;;;;;;6.70;0.85;;;27.10;29.30;;;;;;5030451;28;20423;-69
2022/02/12 12:41:25;;;;;;;6.40;1.00;;;27.10;29.10;;;;;;5032182;28;20394;-68
2022/02/12 12:44:11;;;;;;;3.45;0.60;;;27.20;29.10;;;;;;5030930;28;20383;-69
2022/02/12 12:46:39;;;;;;;4.97;0.82;;;27.20;28.90;;;;;;5030364;28;20426;-73
2022/02/12 12:49:05;;;;;;;5.57;0.90;;;27.20;28.40;;;;;;5030589;28;20419;-69
2022/02/12 12:51:31;;;;;;;7.28;0.93;;;27.20;28.10;;;;;;5031651;28;20383;-69
2022/02/12 12:54:00;;;;;;;10.93;1.00;;;27.30;28.10;;;;;;5029972;28;20541;-69
2022/02/12 12:56:26;;;;;;;5.73;1.00;;;27.30;27.60;;;;;;5030307;28;20394;-69